createdAt,value
2018-04-19T00:00:01.784Z,14.13
2018-04-19T00:00:35.654Z,13.32
2018-04-19T00:01:09.812Z,14.18
2018-04-19T00:01:43.660Z,13.80
2018-04-19T00:02:17.528Z,13.65
2018-04-19T00:02:51.383Z,14.15
2018-04-19T00:03:25.239Z,14.40
2018-04-19T00:03:59.434Z,13.65
2018-04-19T00:04:33.724Z,12.68
2018-04-19T00:05:07.867Z,14.75
2018-04-19T00:05:41.722Z,14.70
2018-04-19T00:06:15.585Z,13.73
2018-04-19T00:06:49.446Z,13.62
2018-04-19T00:07:23.309Z,14.90
2018-04-19T00:07:57.167Z,14.63
2018-04-19T00:08:31.054Z,14.00
2018-04-19T00:09:05.748Z,13.48
2018-04-19T00:09:39.605Z,13.18
2018-04-19T00:10:13.496Z,13.48
2018-04-19T00:10:47.367Z,12.90
2018-04-19T00:11:21.278Z,12.55
2018-04-19T00:11:56.246Z,13.70
2018-04-19T00:12:30.069Z,13.57
2018-04-19T00:13:03.917Z,13.15
2018-04-19T00:13:38.186Z,12.80
2018-04-19T00:14:12.051Z,13.27
2018-04-19T00:14:45.927Z,13.82
2018-04-19T00:15:19.861Z,14.05
2018-04-19T00:15:53.850Z,14.48
2018-04-19T00:16:27.773Z,14.25
2018-04-19T00:17:01.645Z,13.45
2018-04-19T00:17:35.537Z,13.55
2018-04-19T00:18:09.400Z,13.25
2018-04-19T00:18:43.270Z,13.77
2018-04-19T00:19:17.609Z,13.40
2018-04-19T00:19:51.489Z,14.38
2018-04-19T00:20:25.404Z,13.65
2018-04-19T00:20:59.267Z,13.93
2018-04-19T00:21:33.506Z,14.15
2018-04-19T00:22:07.456Z,14.60
2018-04-19T00:22:41.337Z,12.45
2018-04-19T00:23:15.202Z,14.00
2018-04-19T00:23:49.119Z,13.05
2018-04-19T00:24:22.998Z,13.25
2018-04-19T00:24:56.865Z,14.10
2018-04-19T00:25:30.766Z,13.57
2018-04-19T00:26:04.653Z,13.95
2018-04-19T00:26:38.527Z,13.55
2018-04-19T00:27:12.397Z,12.18
2018-04-19T00:27:46.284Z,13.70
2018-04-19T00:28:20.153Z,13.52
2018-04-19T00:28:54.024Z,13.35
2018-04-19T00:29:27.879Z,13.43
2018-04-19T00:30:01.752Z,13.82
2018-04-19T00:30:35.661Z,14.15
2018-04-19T00:31:09.523Z,14.07
2018-04-19T00:31:43.389Z,14.35
2018-04-19T00:32:17.275Z,14.35
2018-04-19T00:32:51.143Z,13.68
2018-04-19T00:33:25.034Z,13.77
2018-04-19T00:33:58.999Z,13.85
2018-04-19T00:34:32.970Z,13.35
2018-04-19T00:35:06.794Z,14.30
2018-04-19T00:35:40.696Z,13.65
2018-04-19T00:36:14.821Z,15.02
2018-04-19T00:36:48.696Z,15.20
2018-04-19T00:37:22.553Z,14.73
2018-04-19T00:37:56.403Z,13.80
2018-04-19T00:38:30.261Z,12.93
2018-04-19T00:39:04.122Z,13.48
2018-04-19T00:39:37.995Z,15.00
2018-04-19T00:40:11.894Z,14.10
2018-04-19T00:40:46.080Z,14.18
2018-04-19T00:41:19.933Z,13.98
2018-04-19T00:41:53.780Z,14.15
2018-04-19T00:42:27.672Z,14.10
2018-04-19T00:43:01.567Z,13.30
2018-04-19T00:43:35.435Z,15.20
2018-04-19T00:44:09.311Z,14.15
2018-04-19T00:44:43.183Z,14.85
2018-04-19T00:45:17.042Z,14.27
2018-04-19T00:45:50.934Z,14.43
2018-04-19T00:46:24.805Z,13.85
2018-04-19T00:46:58.675Z,13.60
2018-04-19T00:47:32.732Z,14.27
2018-04-19T00:48:06.749Z,13.95
2018-04-19T00:48:40.620Z,15.25
2018-04-19T00:49:14.489Z,14.25
2018-04-19T00:49:48.355Z,13.82
2018-04-19T00:50:22.315Z,13.98
2018-04-19T00:50:56.200Z,14.27
2018-04-19T00:51:30.076Z,13.98
2018-04-19T00:52:03.936Z,13.98
2018-04-19T00:52:43.608Z,13.88
2018-04-19T00:53:17.475Z,15.27
2018-04-19T00:53:51.338Z,14.35
2018-04-19T00:54:25.220Z,13.68
2018-04-19T00:54:59.068Z,14.55
2018-04-19T00:55:32.927Z,14.68
2018-04-19T00:56:06.786Z,14.35
2018-04-19T00:56:40.647Z,13.65
2018-04-19T00:57:14.532Z,14.60
2018-04-19T00:57:48.387Z,14.52
2018-04-19T00:58:22.268Z,14.30
2018-04-19T00:58:56.123Z,14.43
2018-04-19T00:59:30.056Z,13.77
2018-04-19T01:00:03.923Z,14.25
2018-04-19T01:00:37.807Z,13.75
2018-04-19T01:01:11.845Z,13.70
2018-04-19T01:01:45.714Z,14.00
2018-04-19T01:02:19.590Z,13.80
2018-04-19T01:02:53.529Z,15.25
2018-04-19T01:03:27.408Z,14.23
2018-04-19T01:04:01.304Z,15.05
2018-04-19T01:04:35.192Z,14.70
2018-04-19T01:05:09.055Z,14.13
2018-04-19T01:05:43.012Z,14.57
2018-04-19T01:06:16.942Z,14.48
2018-04-19T01:06:50.816Z,15.10
2018-04-19T01:07:24.794Z,14.87
2018-04-19T01:07:58.655Z,15.23
2018-04-19T01:08:32.511Z,15.00
2018-04-19T01:09:06.364Z,16.48
2018-04-19T01:09:40.255Z,14.32
2018-04-19T01:10:14.125Z,15.07
2018-04-19T01:10:48.053Z,14.40
2018-04-19T01:11:21.936Z,14.32
2018-04-19T01:11:56.173Z,15.15
2018-04-19T01:12:30.044Z,14.18
2018-04-19T01:13:03.913Z,13.98
2018-04-19T01:13:37.791Z,14.98
2018-04-19T01:14:11.634Z,15.27
2018-04-19T01:14:45.502Z,13.73
2018-04-19T01:15:19.379Z,14.50
2018-04-19T01:15:53.368Z,13.80
2018-04-19T01:16:27.323Z,14.95
2018-04-19T01:17:01.196Z,14.85
2018-04-19T01:17:35.066Z,13.45
2018-04-19T01:18:08.961Z,14.38
2018-04-19T01:18:42.960Z,14.25
2018-04-19T01:19:16.816Z,14.30
2018-04-19T01:19:50.679Z,14.25
2018-04-19T01:20:24.565Z,14.52
2018-04-19T01:20:58.436Z,14.30
2018-04-19T01:21:32.343Z,15.27
2018-04-19T01:22:06.204Z,14.20
2018-04-19T01:22:40.074Z,15.07
2018-04-19T01:23:13.932Z,16.02
2018-04-19T01:23:47.825Z,16.62
2018-04-19T01:24:21.712Z,16.25
2018-04-19T01:24:55.571Z,15.98
2018-04-19T01:25:29.544Z,15.20
2018-04-19T01:26:03.553Z,15.13
2018-04-19T01:26:37.440Z,13.60
2018-04-19T01:27:11.538Z,14.30
2018-04-19T01:27:45.390Z,14.02
2018-04-19T01:28:19.270Z,14.75
2018-04-19T01:28:53.132Z,14.52
2018-04-19T01:29:27.005Z,15.02
2018-04-19T01:30:00.902Z,13.88
2018-04-19T01:30:34.775Z,15.38
2018-04-19T01:31:08.664Z,14.63
2018-04-19T01:31:42.566Z,15.55
2018-04-19T01:32:16.503Z,14.85
2018-04-19T01:32:50.370Z,15.13
2018-04-19T01:33:24.752Z,16.40
2018-04-19T01:33:58.623Z,15.98
2018-04-19T01:34:32.514Z,13.60
2018-04-19T01:35:06.367Z,14.18
2018-04-19T01:35:56.050Z,14.82
2018-04-19T01:36:30.965Z,15.30
2018-04-19T01:37:04.851Z,14.10
2018-04-19T01:37:38.707Z,15.50
2018-04-19T01:38:12.653Z,14.27
2018-04-19T01:38:46.522Z,14.35
2018-04-19T01:39:20.391Z,14.63
2018-04-19T01:39:54.243Z,14.65
2018-04-19T01:40:28.103Z,14.98
2018-04-19T01:41:01.985Z,14.52
2018-04-19T01:41:35.880Z,16.12
2018-04-19T01:42:09.790Z,13.52
2018-04-19T01:42:43.913Z,15.65
2018-04-19T01:43:17.929Z,15.52
2018-04-19T01:43:51.800Z,15.85
2018-04-19T01:44:25.650Z,15.70
2018-04-19T01:44:59.511Z,15.57
2018-04-19T01:45:33.392Z,14.95
2018-04-19T01:46:07.247Z,15.73
2018-04-19T01:46:41.132Z,14.45
2018-04-19T01:47:15.179Z,14.80
2018-04-19T01:47:49.038Z,14.48
2018-04-19T01:48:23.072Z,15.18
2018-04-19T01:48:57.084Z,15.98
2018-04-19T01:49:30.960Z,14.43
2018-04-19T01:50:04.955Z,14.00
2018-04-19T01:50:38.815Z,14.98
2018-04-19T01:51:12.678Z,14.85
2018-04-19T01:51:46.648Z,15.40
2018-04-19T01:52:20.578Z,14.25
2018-04-19T01:52:54.556Z,13.85
2018-04-19T01:53:28.432Z,15.43
2018-04-19T01:54:02.454Z,16.25
2018-04-19T01:54:36.314Z,16.08
2018-04-19T01:55:10.174Z,15.35
2018-04-19T01:55:44.060Z,15.63
2018-04-19T01:56:17.932Z,14.93
2018-04-19T01:56:51.804Z,14.75
2018-04-19T01:57:25.671Z,14.27
2018-04-19T01:57:59.611Z,15.75
2018-04-19T01:58:33.490Z,14.90
2018-04-19T01:59:07.488Z,14.90
2018-04-19T01:59:41.351Z,14.73
2018-04-19T02:00:15.216Z,15.98
2018-04-19T02:00:49.087Z,15.75
2018-04-19T02:01:22.969Z,14.38
2018-04-19T02:01:56.850Z,15.00
2018-04-19T02:02:30.814Z,15.77
2018-04-19T02:03:04.692Z,14.85
2018-04-19T02:03:38.556Z,15.05
2018-04-19T02:04:12.422Z,15.70
2018-04-19T02:04:46.290Z,15.15
2018-04-19T02:05:20.240Z,14.50
2018-04-19T02:05:54.107Z,15.00
2018-04-19T02:06:28.045Z,14.75
2018-04-19T02:07:01.939Z,15.15
2018-04-19T02:07:35.842Z,14.75
2018-04-19T02:08:09.820Z,14.10
2018-04-19T02:08:43.693Z,15.48
2018-04-19T02:09:17.563Z,15.55
2018-04-19T02:09:51.446Z,15.50
2018-04-19T02:10:25.335Z,17.42
2018-04-19T02:10:59.215Z,16.17
2018-04-19T02:11:33.269Z,15.95
2018-04-19T02:12:07.284Z,14.87
2018-04-19T02:12:41.185Z,15.25
2018-04-19T02:13:15.288Z,15.60
2018-04-19T02:13:49.163Z,15.30
2018-04-19T02:14:23.036Z,15.48
2018-04-19T02:14:56.905Z,14.60
2018-04-19T02:15:30.888Z,15.10
2018-04-19T02:16:04.741Z,15.55
2018-04-19T02:16:38.604Z,14.93
2018-04-19T02:17:12.657Z,14.57
2018-04-19T02:17:46.548Z,13.73
2018-04-19T02:18:20.394Z,15.38
2018-04-19T02:18:54.339Z,13.98
2018-04-19T02:19:28.200Z,14.25
2018-04-19T02:20:02.052Z,14.23
2018-04-19T02:20:35.912Z,15.48
2018-04-19T02:21:09.763Z,14.95
2018-04-19T02:21:43.636Z,14.32
2018-04-19T02:22:17.515Z,13.95
2018-04-19T02:22:51.525Z,15.70
2018-04-19T02:23:25.385Z,14.07
2018-04-19T02:23:59.232Z,14.05
2018-04-19T02:24:33.093Z,16.20
2018-04-19T02:25:07.016Z,14.57
2018-04-19T02:25:40.889Z,15.32
2018-04-19T02:26:14.857Z,14.50
2018-04-19T02:26:48.719Z,14.68
2018-04-19T02:27:22.886Z,14.27
2018-04-19T02:27:56.776Z,15.30
2018-04-19T02:28:30.640Z,14.65
2018-04-19T02:29:04.503Z,13.70
2018-04-19T02:29:38.559Z,15.27
2018-04-19T02:30:12.591Z,14.73
2018-04-19T02:30:46.456Z,16.60
2018-04-19T02:31:21.107Z,13.75
2018-04-19T02:31:54.968Z,14.23
2018-04-19T02:32:28.823Z,15.02
2018-04-19T02:33:02.712Z,15.50
2018-04-19T02:33:36.951Z,14.70
2018-04-19T02:34:10.934Z,14.30
2018-04-19T02:34:44.841Z,14.68
2018-04-19T02:35:18.702Z,14.02
2018-04-19T02:35:52.554Z,13.32
2018-04-19T02:36:26.536Z,14.85
2018-04-19T02:37:00.543Z,14.82
2018-04-19T02:37:34.399Z,15.13
2018-04-19T02:38:08.520Z,15.57
2018-04-19T02:38:42.396Z,14.87
2018-04-19T02:39:16.265Z,15.30
2018-04-19T02:39:50.137Z,13.77
2018-04-19T02:40:24.018Z,14.70
2018-04-19T02:40:57.871Z,14.82
2018-04-19T02:41:31.739Z,14.50
2018-04-19T02:42:05.599Z,15.00
2018-04-19T02:42:39.477Z,14.68
2018-04-19T02:43:13.356Z,14.70
2018-04-19T02:43:47.299Z,15.13
2018-04-19T02:44:21.171Z,15.20
2018-04-19T02:44:55.047Z,14.70
2018-04-19T02:45:28.924Z,14.82
2018-04-19T02:46:02.813Z,14.80
2018-04-19T02:46:36.951Z,14.63
2018-04-19T02:47:10.952Z,15.15
2018-04-19T02:47:44.855Z,15.00
2018-04-19T02:48:18.869Z,13.90
2018-04-19T02:48:52.733Z,13.73
2018-04-19T02:49:26.603Z,14.60
2018-04-19T02:50:00.477Z,14.90
2018-04-19T02:50:34.385Z,14.70
2018-04-19T02:51:08.349Z,14.23
2018-04-19T02:51:42.204Z,14.18
2018-04-19T02:52:16.070Z,14.75
2018-04-19T02:52:50.208Z,15.40
2018-04-19T02:53:24.134Z,15.63
2018-04-19T02:53:58.004Z,15.55
2018-04-19T02:54:31.884Z,15.05
2018-04-19T02:55:05.801Z,13.80
2018-04-19T02:55:39.684Z,14.55
2018-04-19T02:56:13.552Z,14.87
2018-04-19T02:56:47.437Z,14.30
2018-04-19T02:57:21.581Z,13.73
2018-04-19T02:57:55.460Z,15.10
2018-04-19T02:58:29.347Z,15.23
2018-04-19T02:59:03.380Z,15.43
2018-04-19T02:59:37.269Z,15.50
2018-04-19T03:00:11.150Z,15.05
2018-04-19T03:00:45.093Z,15.55
2018-04-19T03:01:18.961Z,14.38
2018-04-19T03:01:52.967Z,15.15
2018-04-19T03:02:26.844Z,15.07
2018-04-19T03:03:00.835Z,14.05
2018-04-19T03:03:34.760Z,14.82
2018-04-19T03:04:08.625Z,14.35
2018-04-19T03:04:42.507Z,14.80
2018-04-19T03:05:16.375Z,14.00
2018-04-19T03:05:50.332Z,14.30
2018-04-19T03:06:24.203Z,13.75
2018-04-19T03:06:58.064Z,14.32
2018-04-19T03:07:31.938Z,14.02
2018-04-19T03:08:05.928Z,15.00
2018-04-19T03:08:39.904Z,15.00
2018-04-19T03:09:13.888Z,14.45
2018-04-19T03:09:47.749Z,14.82
2018-04-19T03:10:21.625Z,14.50
2018-04-19T03:10:55.484Z,14.82
2018-04-19T03:11:29.473Z,14.40
2018-04-19T03:12:03.368Z,14.27
2018-04-19T03:12:37.233Z,15.70
2018-04-19T03:13:11.118Z,16.23
2018-04-19T03:13:45.078Z,16.75
2018-04-19T03:14:18.972Z,15.35
2018-04-19T03:14:52.850Z,15.20
2018-04-19T03:15:26.838Z,15.52
2018-04-19T03:16:00.705Z,15.23
2018-04-19T03:16:34.590Z,14.60
2018-04-19T03:17:08.703Z,15.27
2018-04-19T03:17:42.567Z,13.82
2018-04-19T03:18:16.430Z,15.02
2018-04-19T03:18:50.427Z,14.57
2018-04-19T03:19:24.296Z,14.73
2018-04-19T03:19:58.185Z,14.85
2018-04-19T03:20:32.079Z,14.23
2018-04-19T03:21:05.946Z,14.50
2018-04-19T03:21:39.806Z,14.82
2018-04-19T03:22:13.661Z,14.32
2018-04-19T03:22:47.549Z,14.60
2018-04-19T03:23:21.399Z,15.55
2018-04-19T03:23:55.369Z,14.75
2018-04-19T03:24:29.219Z,15.45
2018-04-19T03:25:03.088Z,13.82
2018-04-19T03:25:37.080Z,13.98
2018-04-19T03:26:10.948Z,15.82
2018-04-19T03:26:44.823Z,14.45
2018-04-19T03:27:18.862Z,14.73
2018-04-19T03:27:52.749Z,15.43
2018-04-19T03:28:26.640Z,15.70
2018-04-19T03:29:00.562Z,13.90
2018-04-19T03:29:34.632Z,14.65
2018-04-19T03:30:08.514Z,15.57
2018-04-19T03:30:42.421Z,14.57
2018-04-19T03:31:16.339Z,15.25
2018-04-19T03:31:50.196Z,14.90
2018-04-19T03:32:24.057Z,15.13
2018-04-19T03:32:57.944Z,15.00
2018-04-19T03:33:31.837Z,14.10
2018-04-19T03:34:05.910Z,15.10
2018-04-19T03:34:39.780Z,15.02
2018-04-19T03:35:13.716Z,17.20
2018-04-19T03:35:47.613Z,17.05
2018-04-19T03:36:21.487Z,16.37
2018-04-19T03:36:55.369Z,15.38
2018-04-19T03:37:29.245Z,14.05
2018-04-19T03:38:03.121Z,16.17
2018-04-19T03:38:36.984Z,15.32
2018-04-19T03:39:10.917Z,15.65
2018-04-19T03:39:44.799Z,15.75
2018-04-19T03:40:18.652Z,16.50
2018-04-19T03:40:53.193Z,16.95
2018-04-19T03:41:27.050Z,16.10
2018-04-19T03:42:00.899Z,16.60
2018-04-19T03:42:34.751Z,15.30
2018-04-19T03:43:08.753Z,16.10
2018-04-19T03:43:42.627Z,15.68
2018-04-19T03:44:16.879Z,18.15
2018-04-19T03:44:50.734Z,16.08
2018-04-19T03:45:24.731Z,16.90
2018-04-19T03:45:58.608Z,16.80
2018-04-19T03:46:32.466Z,16.05
2018-04-19T03:47:06.324Z,17.10
2018-04-19T03:47:40.303Z,16.60
2018-04-19T03:48:14.198Z,16.40
2018-04-19T03:48:48.093Z,15.63
2018-04-19T03:49:21.980Z,16.83
2018-04-19T03:49:55.841Z,16.27
2018-04-19T03:50:29.792Z,16.70
2018-04-19T03:51:03.656Z,16.40
2018-04-19T03:51:37.517Z,15.43
2018-04-19T03:52:11.569Z,15.93
2018-04-19T03:52:45.432Z,16.02
2018-04-19T03:53:19.375Z,16.30
2018-04-19T03:53:53.306Z,16.35
2018-04-19T03:54:27.393Z,16.42
2018-04-19T03:55:01.251Z,15.00
2018-04-19T03:55:35.123Z,16.55
2018-04-19T03:56:08.987Z,16.15
2018-04-19T03:56:42.866Z,14.93
2018-04-19T03:57:16.730Z,15.27
2018-04-19T03:57:50.727Z,15.98
2018-04-19T03:58:24.620Z,14.57
2018-04-19T03:58:58.481Z,15.60
2018-04-19T03:59:32.371Z,16.35
2018-04-19T04:00:06.420Z,16.12
2018-04-19T04:00:40.306Z,14.60
2018-04-19T04:01:14.213Z,15.70
2018-04-19T04:01:48.090Z,16.40
2018-04-19T04:02:21.960Z,15.88
2018-04-19T04:02:55.823Z,16.10
2018-04-19T04:03:29.704Z,15.52
2018-04-19T04:04:03.567Z,15.90
2018-04-19T04:04:37.445Z,16.52
2018-04-19T04:05:11.573Z,16.17
2018-04-19T04:05:45.428Z,15.60
2018-04-19T04:06:19.293Z,15.55
2018-04-19T04:06:53.152Z,15.80
2018-04-19T04:07:27.011Z,16.15
2018-04-19T04:08:00.902Z,17.45
2018-04-19T04:08:34.799Z,16.30
2018-04-19T04:09:08.670Z,16.45
2018-04-19T04:09:42.639Z,16.30
2018-04-19T04:10:16.506Z,15.70
2018-04-19T04:10:50.368Z,16.50
2018-04-19T04:11:24.264Z,15.23
2018-04-19T04:11:58.147Z,17.05
2018-04-19T04:12:32.108Z,16.15
2018-04-19T04:13:05.965Z,16.60
2018-04-19T04:13:39.828Z,15.93
2018-04-19T04:14:13.680Z,16.08
2018-04-19T04:14:47.555Z,16.40
2018-04-19T04:15:21.427Z,16.17
2018-04-19T04:15:55.300Z,17.40
2018-04-19T04:16:35.025Z,16.48
2018-04-19T04:17:14.834Z,16.65
2018-04-19T04:17:54.604Z,17.33
2018-04-19T04:18:34.471Z,16.45
2018-04-19T04:19:14.300Z,15.07
2018-04-19T04:19:54.078Z,15.65
2018-04-19T04:20:33.867Z,15.77
2018-04-19T04:21:11.452Z,15.63
2018-04-19T04:21:51.202Z,15.30
2018-04-19T04:22:30.908Z,16.48
2018-04-19T04:23:24.371Z,16.55
2018-04-19T04:23:58.232Z,15.43
2018-04-19T04:24:32.085Z,16.95
2018-04-19T04:25:05.997Z,18.55
2018-04-19T04:25:39.935Z,16.65
2018-04-19T04:26:13.800Z,17.77
2018-04-19T04:26:47.667Z,20.88
2018-04-19T04:27:21.530Z,20.15
2018-04-19T04:27:55.395Z,22.17
2018-04-19T04:28:29.378Z,22.27
2018-04-19T04:29:03.244Z,24.40
2018-04-19T04:29:37.103Z,25.23
2018-04-19T04:30:10.989Z,27.60
2018-04-19T04:30:45.057Z,29.12
2018-04-19T04:31:18.974Z,28.83
2018-04-19T04:31:52.873Z,25.00
2018-04-19T04:32:26.769Z,23.85
2018-04-19T04:33:00.642Z,26.00
2018-04-19T04:33:34.520Z,25.67
2018-04-19T04:34:08.376Z,25.08
2018-04-19T04:34:42.245Z,26.00
2018-04-19T04:35:16.137Z,24.55
2018-04-19T04:35:50.067Z,25.27
2018-04-19T04:36:24.011Z,23.92
2018-04-19T04:36:57.866Z,25.52
2018-04-19T04:37:31.728Z,28.08
2018-04-19T04:38:05.611Z,25.33
2018-04-19T04:38:39.475Z,24.58
2018-04-19T04:39:13.332Z,25.83
2018-04-19T04:39:47.195Z,23.50
2018-04-19T04:40:21.295Z,24.25
2018-04-19T04:40:55.203Z,25.27
2018-04-19T04:41:29.139Z,23.85
2018-04-19T04:42:03.121Z,24.05
2018-04-19T04:42:37.000Z,26.20
2018-04-19T04:43:10.881Z,25.40
2018-04-19T04:43:45.036Z,26.60
2018-04-19T04:44:18.903Z,25.52
2018-04-19T04:44:52.853Z,25.30
2018-04-19T04:45:26.959Z,26.10
2018-04-19T04:46:00.816Z,27.75
2018-04-19T04:46:34.692Z,25.62
2018-04-19T04:47:08.554Z,26.98
2018-04-19T04:47:42.416Z,26.58
2018-04-19T04:48:16.293Z,27.37
2018-04-19T04:48:50.157Z,27.23
2018-04-19T04:49:24.024Z,25.33
2018-04-19T04:49:57.889Z,26.40
2018-04-19T04:50:31.784Z,24.08
2018-04-19T04:51:05.648Z,24.33
2018-04-19T04:51:39.791Z,25.48
2018-04-19T04:52:13.652Z,25.48
2018-04-19T04:52:47.711Z,25.00
2018-04-19T04:53:21.602Z,25.15
2018-04-19T04:53:55.471Z,26.42
2018-04-19T04:54:29.366Z,26.10
2018-04-19T04:55:03.247Z,25.62
2018-04-19T04:55:37.194Z,25.27
2018-04-19T04:56:11.073Z,24.45
2018-04-19T04:56:44.955Z,24.70
2018-04-19T04:57:18.855Z,28.70
2018-04-19T04:57:52.742Z,25.12
2018-04-19T04:58:26.633Z,26.60
2018-04-19T04:59:00.508Z,27.42
2018-04-19T04:59:34.784Z,25.15
2018-04-19T05:00:08.875Z,24.45
2018-04-19T05:00:42.837Z,26.87
2018-04-19T05:01:16.727Z,26.92
2018-04-19T05:01:50.617Z,26.90
2018-04-19T05:02:24.518Z,25.73
2018-04-19T05:02:58.402Z,25.42
2018-04-19T05:03:32.268Z,25.75
2018-04-19T05:04:06.159Z,25.23
2018-04-19T05:04:40.020Z,27.37
2018-04-19T05:05:13.927Z,27.08
2018-04-19T05:05:48.048Z,26.30
2018-04-19T05:06:21.931Z,25.62
2018-04-19T05:06:55.799Z,26.17
2018-04-19T05:07:29.664Z,26.98
2018-04-19T05:08:03.556Z,27.42
2018-04-19T05:08:37.434Z,25.62
2018-04-19T05:09:11.305Z,26.15
2018-04-19T05:09:45.170Z,27.33
2018-04-19T05:10:19.045Z,26.95
2018-04-19T05:10:52.960Z,26.27
2018-04-19T05:11:26.829Z,24.95
2018-04-19T05:12:00.694Z,27.05
2018-04-19T05:12:34.558Z,26.65
2018-04-19T05:13:08.528Z,27.65
2018-04-19T05:13:42.540Z,27.65
2018-04-19T05:14:16.398Z,27.80
2018-04-19T05:14:50.272Z,26.80
2018-04-19T05:15:24.128Z,26.85
2018-04-19T05:15:58.026Z,28.02
2018-04-19T05:16:31.944Z,29.00
2018-04-19T05:17:05.832Z,26.90
2018-04-19T05:17:39.807Z,26.55
2018-04-19T05:18:13.692Z,26.65
2018-04-19T05:18:47.566Z,24.98
2018-04-19T05:19:21.442Z,26.30
2018-04-19T05:19:55.324Z,26.10
2018-04-19T05:20:29.199Z,26.52
2018-04-19T05:21:03.088Z,27.87
2018-04-19T05:21:36.975Z,25.83
2018-04-19T05:22:10.978Z,25.65
2018-04-19T05:22:44.860Z,27.55
2018-04-19T05:23:18.854Z,24.85
2018-04-19T05:23:52.711Z,26.42
2018-04-19T05:24:26.593Z,27.37
2018-04-19T05:25:00.471Z,26.33
2018-04-19T05:25:34.328Z,26.12
2018-04-19T05:26:08.239Z,27.17
2018-04-19T05:26:42.114Z,26.23
2018-04-19T05:27:16.021Z,27.75
2018-04-19T05:27:49.909Z,25.02
2018-04-19T05:28:23.796Z,25.40
2018-04-19T05:28:57.709Z,26.52
2018-04-19T05:29:31.565Z,25.10
2018-04-19T05:30:05.439Z,25.52
2018-04-19T05:30:39.301Z,24.33
2018-04-19T05:31:13.283Z,25.58
2018-04-19T05:31:47.211Z,28.73
2018-04-19T05:32:21.133Z,28.67
2018-04-19T05:32:54.997Z,26.62
2018-04-19T05:33:28.885Z,27.52
2018-04-19T05:34:02.766Z,25.50
2018-04-19T05:34:36.661Z,25.85
2018-04-19T05:35:10.544Z,26.25
2018-04-19T05:35:44.409Z,26.10
2018-04-19T05:36:18.309Z,25.55
2018-04-19T05:36:52.215Z,26.37
2018-04-19T05:37:26.079Z,26.50
2018-04-19T05:37:59.963Z,25.73
2018-04-19T05:38:34.824Z,26.17
2018-04-19T05:39:08.701Z,27.23
2018-04-19T05:39:42.612Z,26.87
2018-04-19T05:40:16.475Z,26.40
2018-04-19T05:40:50.422Z,25.92
2018-04-19T05:41:24.331Z,25.65
2018-04-19T05:41:58.196Z,24.23
2018-04-19T05:42:32.097Z,25.73
2018-04-19T05:43:05.999Z,25.98
2018-04-19T05:43:39.964Z,25.10
2018-04-19T05:44:13.831Z,26.33
2018-04-19T05:44:47.703Z,25.92
2018-04-19T05:45:21.687Z,26.83
2018-04-19T05:45:55.616Z,25.85
2018-04-19T05:46:29.514Z,25.90
2018-04-19T05:47:03.403Z,25.10
2018-04-19T05:47:37.259Z,25.30
2018-04-19T05:48:11.120Z,25.05
2018-04-19T05:48:45.026Z,25.05
2018-04-19T05:49:18.917Z,24.55
2018-04-19T05:49:52.776Z,23.98
2018-04-19T05:50:26.744Z,24.50
2018-04-19T05:51:00.846Z,23.98
2018-04-19T05:51:34.808Z,25.45
2018-04-19T05:52:08.692Z,24.02
2018-04-19T05:52:42.556Z,24.77
2018-04-19T05:53:16.439Z,24.12
2018-04-19T05:53:50.322Z,26.15
2018-04-19T05:54:24.226Z,24.58
2018-04-19T05:54:58.077Z,25.17
2018-04-19T05:55:31.944Z,24.20
2018-04-19T05:56:05.827Z,23.67
2018-04-19T05:56:39.723Z,24.52
2018-04-19T05:57:13.796Z,25.20
2018-04-19T05:57:47.651Z,25.23
2018-04-19T05:58:21.520Z,24.08
2018-04-19T05:58:55.396Z,23.83
2018-04-19T05:59:29.283Z,24.27
2018-04-19T06:00:03.145Z,24.33
2018-04-19T06:00:37.020Z,25.33
2018-04-19T06:01:10.908Z,24.23
2018-04-19T06:01:44.806Z,24.50
2018-04-19T06:02:18.665Z,24.37
2018-04-19T06:02:52.541Z,24.20
2018-04-19T06:03:26.438Z,23.52
2018-04-19T06:04:00.329Z,24.02
2018-04-19T06:04:35.255Z,23.55
2018-04-19T06:05:09.124Z,23.80
2018-04-19T06:05:43.054Z,23.92
2018-04-19T06:06:16.919Z,24.02
2018-04-19T06:06:50.886Z,24.35
2018-04-19T06:07:24.755Z,24.80
2018-04-19T06:07:58.632Z,24.87
2018-04-19T06:08:32.539Z,23.40
2018-04-19T06:09:06.386Z,23.70
2018-04-19T06:09:40.235Z,23.52
2018-04-19T06:10:14.104Z,24.87
2018-04-19T06:10:47.998Z,24.55
2018-04-19T06:11:21.876Z,23.55
2018-04-19T06:11:55.845Z,26.08
2018-04-19T06:12:29.749Z,24.40
2018-04-19T06:13:03.677Z,25.92
2018-04-19T06:13:37.533Z,23.42
2018-04-19T06:14:11.421Z,22.98
2018-04-19T06:14:45.279Z,23.52
2018-04-19T06:15:19.179Z,23.75
2018-04-19T06:15:53.066Z,23.35
2018-04-19T06:16:26.964Z,23.98
2018-04-19T06:17:00.945Z,24.55
2018-04-19T06:17:34.954Z,25.33
2018-04-19T06:18:08.832Z,25.02
2018-04-19T06:18:42.709Z,25.52
2018-04-19T06:19:16.564Z,23.95
2018-04-19T06:19:52.021Z,22.90
2018-04-19T06:20:25.897Z,24.17
2018-04-19T06:20:59.854Z,21.87
2018-04-19T06:21:33.786Z,23.30
2018-04-19T06:22:07.671Z,22.83
2018-04-19T06:22:41.585Z,24.90
2018-04-19T06:23:15.480Z,22.90
2018-04-19T06:23:49.370Z,21.30
2018-04-19T06:24:23.232Z,23.15
2018-04-19T06:24:57.114Z,22.62
2018-04-19T06:25:31.000Z,22.98
2018-04-19T06:26:05.772Z,21.52
2018-04-19T06:26:39.634Z,22.50
2018-04-19T06:27:13.564Z,23.80
2018-04-19T06:27:47.430Z,21.98
2018-04-19T06:28:21.307Z,21.95
2018-04-19T06:28:55.172Z,20.83
2018-04-19T06:29:29.039Z,22.48
2018-04-19T06:30:02.917Z,22.75
2018-04-19T06:30:37.099Z,24.42
2018-04-19T06:31:10.954Z,23.55
2018-04-19T06:31:44.819Z,22.23
2018-04-19T06:32:18.691Z,20.60
2018-04-19T06:32:52.628Z,22.10
2018-04-19T06:33:26.489Z,22.30
2018-04-19T06:34:00.477Z,22.33
2018-04-19T06:34:34.452Z,21.40
2018-04-19T06:35:08.303Z,22.37
2018-04-19T06:35:42.465Z,21.85
2018-04-19T06:36:16.321Z,21.52
2018-04-19T06:36:50.199Z,22.33
2018-04-19T06:37:24.095Z,21.15
2018-04-19T06:37:57.951Z,21.20
2018-04-19T06:38:31.875Z,21.35
2018-04-19T06:39:05.739Z,20.37
2018-04-19T06:39:39.623Z,21.85
2018-04-19T06:40:13.486Z,21.67
2018-04-19T06:40:47.397Z,22.25
2018-04-19T06:41:21.255Z,23.62
2018-04-19T06:41:55.114Z,21.87
2018-04-19T06:42:29.001Z,21.52
2018-04-19T06:43:02.894Z,21.60
2018-04-19T06:43:36.793Z,21.52
2018-04-19T06:44:10.648Z,21.65
2018-04-19T06:44:44.687Z,20.75
2018-04-19T06:45:18.590Z,22.23
2018-04-19T06:45:52.461Z,21.10
2018-04-19T06:46:26.336Z,22.15
2018-04-19T06:47:00.193Z,21.58
2018-04-19T06:47:34.148Z,20.20
2018-04-19T06:48:08.027Z,20.83
2018-04-19T06:48:41.888Z,22.48
2018-04-19T06:49:15.772Z,20.75
2018-04-19T06:49:49.668Z,21.42
2018-04-19T06:50:23.529Z,19.85
2018-04-19T06:50:58.260Z,21.37
2018-04-19T06:51:32.128Z,21.33
2018-04-19T06:52:06.094Z,20.45
2018-04-19T06:52:40.083Z,20.23
2018-04-19T06:53:13.971Z,20.80
2018-04-19T06:53:48.141Z,21.23
2018-04-19T06:54:22.027Z,21.55
2018-04-19T06:54:55.887Z,19.35
2018-04-19T06:55:29.769Z,17.55
2018-04-19T06:56:03.640Z,18.12
2018-04-19T06:56:37.531Z,17.10
2018-04-19T06:57:11.461Z,19.25
2018-04-19T06:57:45.344Z,18.85
2018-04-19T06:58:19.204Z,17.37
2018-04-19T06:58:53.088Z,18.33
2018-04-19T06:59:27.044Z,19.00
2018-04-19T07:00:00.928Z,17.80
2018-04-19T07:00:34.885Z,18.02
2018-04-19T07:01:08.774Z,16.90
2018-04-19T07:01:42.632Z,16.90
2018-04-19T07:02:16.505Z,16.70
2018-04-19T07:02:50.394Z,17.30
2018-04-19T07:03:24.245Z,18.02
2018-04-19T07:03:58.144Z,16.85
2018-04-19T07:04:32.356Z,18.00
2018-04-19T07:05:06.250Z,16.95
2018-04-19T07:05:40.108Z,17.92
2018-04-19T07:06:13.976Z,17.40
2018-04-19T07:06:47.918Z,15.35
2018-04-19T07:07:21.802Z,16.90
2018-04-19T07:07:55.695Z,17.62
2018-04-19T07:08:29.640Z,17.65
2018-04-19T07:09:03.507Z,13.80
2018-04-19T07:09:37.378Z,15.20
2018-04-19T07:10:14.078Z,14.40
2018-04-19T07:10:51.075Z,13.68
2018-04-19T07:11:27.880Z,15.02
2018-04-19T07:12:03.773Z,13.57
2018-04-19T07:12:39.943Z,12.68
2018-04-19T07:13:15.565Z,13.48
2018-04-19T07:13:52.967Z,13.52
2018-04-19T07:14:26.846Z,12.40
2018-04-19T07:15:04.696Z,13.00
2018-04-19T07:15:40.053Z,11.27
2018-04-19T07:16:15.385Z,12.40
2018-04-19T07:16:50.720Z,11.50
2018-04-19T07:17:27.386Z,12.77
2018-04-19T07:18:03.854Z,11.85
2018-04-19T07:18:40.693Z,11.93